Georgetown, Iowa
Current Conditions -  °F | °C
As of 2:53 AM on Saturday 29 Nov 2014 (Local Time) from KOTM Reporting Station
Clear Clear  
Wind Chill: 30°   Ceiling: Unl
Heat Index: 37°   Visibility: 10mi
Dew Point: 32°   Wind: 9mph
Humidity: 82%   Direction: 180°S
Pressure: 29.63"   Gusts: NA
Location:  41.0299°N, 92.7795°W
Report Text: KOTM 290853Z AUTO 18008KT 10SM CLR 03/00 A2963 RMK AO2 SLP040 T00280000 56013
Loading
Personal Weather Stations






























Interactive Weather Map New forecast layout! Learn more

10-Day Weather Forecast

Advertisements
Track Severe Weather on mobile